Los Lunas ASC Data

Date Time Air Temperature Relative Humidity Dewpoint Windchill Heat Index Wind Speed Wind Dir. Rain Solar Radiation Soil Temperature
2m 2m 3m 3m 10cm
US/Mountain F % F F F MPH deg in MJ/m^2 F
max avg avg
2021-09-15 00:05:00 69.5 36.0 41.4 69.5 69.5 0.8 1.2 0.4 67.9 307.2 0.00 0.0000000 83.2
2021-09-15 00:10:00 68.2 36.7 40.7 68.2 68.2 0.0 0.8 0.1 46.4 69.3 0.00 0.0000000 83.1
2021-09-15 00:15:00 67.7 37.4 40.8 67.7 67.7 0.0 0.0 0.0 100.6 0.0 0.00 0.0000000 83.0
2021-09-15 00:20:00 67.4 38.2 41.0 67.4 67.4 0.0 0.0 0.0 97.3 0.0 0.00 0.0000000 82.9
2021-09-15 00:25:00 66.6 39.5 41.2 66.6 66.6 0.0 1.5 0.4 49.4 48.2 0.00 0.0000000 82.8
2021-09-15 00:30:00 66.6 38.9 40.8 66.6 66.6 0.0 1.2 0.1 338.8 167.5 0.00 0.0000000 82.7
2021-09-15 00:35:00 67.4 37.6 40.6 67.4 67.4 1.3 2.2 1.4 250.8 251.5 0.00 0.0000000 82.6
2021-09-15 00:40:00 67.5 37.3 40.5 67.5 67.5 1.5 2.1 1.3 296.8 316.1 0.00 0.0000000 82.5
2021-09-15 00:45:00 68.1 32.7 37.7 68.1 68.1 1.2 2.8 1.8 205.8 243.7 0.00 0.0000000 82.4
2021-09-15 00:50:00 68.5 37.7 41.7 68.5 68.5 0.0 1.2 0.4 44.3 342.6 0.00 0.0000000 82.3
2021-09-15 00:55:00 68.0 35.3 39.6 68.0 68.0 2.2 2.2 1.0 56.6 46.5 0.00 0.0000000 82.2
2021-09-15 01:00:00 67.9 32.4 37.3 67.9 67.9 1.5 3.7 2.9 267.4 36.6 0.00 0.0000000 82.1
2021-09-15 01:05:00 69.3 29.1 35.8 69.3 69.3 0.0 2.2 0.7 299.3 289.5 0.00 0.0000000 82.0
2021-09-15 01:10:00 70.4 28.5 36.2 70.4 70.4 1.5 3.0 1.1 250.4 8.8 0.00 0.0000000 81.9
2021-09-15 01:15:00 71.0 27.6 35.9 71.0 71.0 0.0 3.1 1.2 61.3 262.8 0.00 0.0000000 81.8
2021-09-15 01:20:00 70.8 32.7 40.1 70.8 70.8 0.0 0.0 0.0 223.8 0.0 0.00 0.0000000 81.8
2021-09-15 01:25:00 69.9 31.6 38.4 69.9 69.9 0.0 0.0 0.0 230.4 0.0 0.00 0.0000000 81.7
2021-09-15 01:30:00 70.1 27.9 35.4 70.1 70.1 1.7 2.4 0.4 332.3 289.8 0.00 0.0000000 81.6
2021-09-15 01:35:00 71.5 26.1 34.9 71.5 71.5 3.5 3.8 2.3 32.0 25.4 0.00 0.0000000 81.5
2021-09-15 01:40:00 72.8 25.6 35.5 72.8 72.8 3.5 4.7 3.7 55.1 39.3 0.00 0.0000000 81.4
2021-09-15 01:45:00 71.3 31.2 39.3 71.3 71.3 1.2 3.5 1.9 7.7 110.6 0.00 0.0000000 81.4
2021-09-15 01:50:00 70.7 29.3 37.2 70.7 70.7 1.0 3.5 1.8 201.8 54.7 0.00 0.0000000 81.3
2021-09-15 01:55:00 70.4 33.2 40.0 70.4 70.4 1.5 2.1 0.5 178.8 164.0 0.00 0.0000000 81.2
2021-09-15 02:00:00 68.6 34.9 39.8 68.6 68.6 1.7 1.9 1.2 268.8 215.7 0.00 0.0000000 81.2
2021-09-15 02:05:00 68.1 35.3 39.6 68.1 68.1 1.5 2.4 1.5 261.0 241.0 0.00 0.0000000 81.1
2021-09-15 02:10:00 68.3 34.4 39.2 68.3 68.3 2.4 2.4 1.2 339.6 302.0 0.00 0.0000000 81.0
2021-09-15 02:15:00 69.0 32.8 38.5 69.0 69.0 1.3 2.4 1.3 264.2 285.2 0.00 0.0000000 80.9
2021-09-15 02:20:00 68.4 34.0 38.9 68.4 68.4 1.5 2.6 1.5 173.3 210.2 0.00 0.0000000 80.8
2021-09-15 02:25:00 68.2 35.8 40.0 68.2 68.2 0.0 1.9 0.6 216.2 254.5 0.00 0.0000000 80.8
2021-09-15 02:30:00 67.9 37.3 40.8 67.9 67.9 1.2 1.5 0.6 91.7 188.8 0.00 0.0000000 80.7
2021-09-15 02:35:00 67.1 39.1 41.4 67.1 67.1 0.0 1.7 0.3 61.1 23.0 0.00 0.0000000 80.6
2021-09-15 02:40:00 66.8 43.4 43.8 66.8 66.8 0.8 1.0 0.1 163.0 199.7 0.00 0.0000000 80.5
2021-09-15 02:45:00 67.3 43.4 44.3 67.3 67.3 0.8 1.9 0.8 302.9 79.0 0.00 0.0000000 80.4
2021-09-15 02:50:00 67.6 43.2 44.5 67.6 67.6 2.8 2.8 0.2 55.6 39.6 0.00 0.0000000 80.3
2021-09-15 02:55:00 67.6 40.7 42.9 67.6 67.6 3.7 4.4 2.9 50.2 27.7 0.00 0.0000000 80.2
2021-09-15 03:00:00 69.3 38.0 42.6 69.3 69.3 4.2 6.2 3.5 6.0 25.4 0.00 0.0000000 80.2
2021-09-15 03:05:00 69.7 38.2 43.1 69.7 69.7 1.7 4.2 2.2 169.0 36.4 0.00 0.0000000 80.1
2021-09-15 03:10:00 69.2 39.8 43.7 69.2 69.2 3.7 4.0 2.8 64.5 29.4 0.00 0.0000000 80.0
2021-09-15 03:15:00 69.2 39.8 43.7 69.2 69.2 2.6 5.8 2.7 37.0 70.5 0.00 0.0000000 79.9
2021-09-15 03:20:00 67.8 41.6 43.7 67.8 67.8 3.1 5.1 3.6 22.9 23.1 0.00 0.0000000 79.8
2021-09-15 03:25:00 68.6 41.8 44.5 68.6 68.6 3.8 6.3 3.6 339.3 18.7 0.00 0.0000000 79.7
2021-09-15 03:30:00 69.0 41.3 44.5 69.0 69.0 2.4 5.6 3.1 5.8 13.5 0.00 0.0000000 79.6
2021-09-15 03:35:00 68.6 43.6 45.5 68.6 68.6 4.4 4.4 2.5 47.8 50.6 0.00 0.0000000 79.6
2021-09-15 03:40:00 70.1 41.0 45.3 70.1 70.1 3.5 5.6 4.2 29.4 55.2 0.00 0.0000000 79.5
2021-09-15 03:45:00 69.2 43.4 46.0 69.2 69.2 3.5 3.8 3.3 74.2 51.6 0.00 0.0000000 79.4
2021-09-15 03:50:00 68.9 41.4 44.5 68.9 68.9 0.0 3.7 1.3 108.5 117.6 0.00 0.0000000 79.3
2021-09-15 03:55:00 67.8 41.9 43.8 67.8 67.8 2.1 2.1 0.7 22.6 35.2 0.00 0.0000000 79.3
2021-09-15 04:00:00 66.7 42.8 43.3 66.7 66.7 0.0 2.2 1.2 147.8 60.3 0.00 0.0000000 79.2
2021-09-15 04:05:00 65.9 42.8 42.6 65.9 65.9 0.0 1.3 0.2 233.4 349.8 0.00 0.0000000 79.1
2021-09-15 04:10:00 65.8 41.7 41.9 65.8 65.8 2.8 2.8 1.9 242.4 224.6 0.00 0.0000000 79.0
2021-09-15 04:15:00 66.1 39.7 40.9 66.1 66.1 1.9 3.1 2.1 220.9 245.0 0.00 0.0000000 79.0
2021-09-15 04:20:00 65.9 41.5 41.9 65.9 65.9 2.2 4.0 2.6 264.2 244.2 0.00 0.0000000 78.9
2021-09-15 04:25:00 65.2 41.6 41.3 65.2 65.2 0.0 1.9 0.8 294.9 286.0 0.00 0.0000000 78.8
2021-09-15 04:30:00 64.7 43.1 41.8 64.7 64.7 0.0 2.2 0.7 324.8 243.1 0.00 0.0000000 78.7
2021-09-15 04:35:00 63.9 44.3 41.8 63.9 63.9 2.4 2.4 0.4 242.5 275.2 0.00 0.0000000 78.7
2021-09-15 04:40:00 63.4 46.0 42.3 63.4 63.4 2.2 3.3 2.6 219.6 234.3 0.00 0.0000000 78.6
2021-09-15 04:45:00 63.6 47.6 43.3 63.6 63.6 1.3 2.4 1.4 237.6 211.6 0.00 0.0000000 78.5
2021-09-15 04:50:00 63.1 48.4 43.3 63.1 63.1 0.0 1.7 0.8 161.7 188.9 0.00 0.0000000 78.5
2021-09-15 04:55:00 62.7 49.2 43.4 62.7 62.7 1.0 2.6 1.4 211.2 227.9 0.00 0.0000000 78.4
2021-09-15 05:00:00 62.8 48.8 43.3 62.8 62.8 3.1 3.1 1.0 248.1 241.0 0.00 0.0000000 78.3
2021-09-15 05:05:00 63.2 47.5 42.9 63.2 63.2 3.5 4.7 2.6 254.4 232.8 0.00 0.0000000 78.2
2021-09-15 05:10:00 63.5 47.3 43.1 63.5 63.5 1.7 4.0 2.5 191.2 223.8 0.00 0.0000000 78.1
2021-09-15 05:15:00 63.6 45.7 42.2 63.6 63.6 2.4 3.3 2.2 195.0 190.6 0.00 0.0000000 78.0
2021-09-15 05:20:00 63.6 45.7 42.2 63.6 63.6 2.2 3.1 1.9 181.6 194.1 0.00 0.0000000 78.0
2021-09-15 05:25:00 63.6 45.5 42.2 63.6 63.6 6.0 6.0 3.1 254.9 187.3 0.00 0.0000000 77.9
2021-09-15 05:30:00 63.3 46.2 42.3 63.3 63.3 1.5 4.6 2.5 188.6 217.4 0.00 0.0000000 77.8
2021-09-15 05:35:00 63.2 46.4 42.2 63.2 63.2 2.2 2.4 1.8 259.3 218.0 0.00 0.0000000 77.7
2021-09-15 05:40:00 62.5 47.4 42.2 62.5 62.5 0.0 2.4 1.6 158.2 186.0 0.00 0.0000000 77.6
2021-09-15 05:45:00 62.3 49.1 43.0 62.3 62.3 0.0 0.0 0.0 268.3 0.0 0.00 0.0000000 77.6
2021-09-15 05:50:00 61.7 50.3 43.0 61.7 61.7 1.7 1.7 0.6 287.5 284.9 0.00 0.0000000 77.5
2021-09-15 05:55:00 61.9 51.6 43.9 61.9 61.9 1.0 1.7 0.6 258.5 275.0 0.00 0.0000000 77.4
2021-09-15 06:00:00 62.1 52.0 44.3 62.1 62.1 0.0 1.7 0.4 263.1 289.4 0.00 0.0000000 77.3
2021-09-15 06:05:00 62.2 52.0 44.4 62.2 62.2 0.8 1.9 1.2 249.3 256.5 0.00 0.0000000 77.2
2021-09-15 06:10:00 62.1 53.0 44.8 62.1 62.1 0.8 1.3 0.4 299.7 259.7 0.00 0.0000000 77.1
2021-09-15 06:15:00 62.4 52.7 44.9 62.4 62.4 0.8 2.6 0.8 277.7 280.6 0.00 0.0000000 77.1
2021-09-15 06:20:00 62.9 53.8 45.8 62.9 62.9 2.2 2.6 1.1 242.3 248.3 0.00 0.0000000 77.0
2021-09-15 06:25:00 63.5 52.7 45.9 63.5 63.5 2.4 3.7 2.5 205.6 233.3 0.00 0.0000000 76.9
2021-09-15 06:30:00 63.3 53.6 46.2 63.3 63.3 0.0 2.4 0.7 270.9 246.4 0.00 0.0000000 76.9
2021-09-15 06:35:00 63.1 54.6 46.5 63.1 63.1 1.7 2.4 0.7 283.2 253.7 0.00 0.0000000 76.8
2021-09-15 06:40:00 63.5 54.2 46.6 63.5 63.5 1.2 2.8 2.0 252.7 249.6 0.00 0.0010000 76.7
2021-09-15 06:45:00 63.3 54.3 46.5 63.3 63.3 1.5 2.2 1.6 268.1 265.8 0.00 0.0020000 76.6
2021-09-15 06:50:00 63.8 54.3 47.0 63.8 63.8 2.2 4.0 2.3 249.5 265.5 0.00 0.0030000 76.6
2021-09-15 06:55:00 63.4 54.2 46.6 63.4 63.4 1.9 2.4 1.4 234.2 249.2 0.00 0.0050000 76.5
2021-09-15 07:00:00 63.8 54.3 47.0 63.8 63.8 1.7 2.4 1.8 221.9 244.3 0.00 0.0070000 76.4
2021-09-15 07:05:00 63.8 54.3 47.0 63.8 63.8 1.7 2.2 1.7 262.4 244.2 0.00 0.0100000 76.4
2021-09-15 07:10:00 63.8 54.1 46.9 63.8 63.8 2.1 3.1 2.1 233.8 241.3 0.00 0.0130000 76.3
2021-09-15 07:15:00 63.7 54.3 46.9 63.7 63.7 2.6 3.3 2.3 234.5 245.6 0.00 0.0150000 76.3
2021-09-15 07:20:00 64.2 53.3 46.9 64.2 64.2 2.8 4.4 3.6 232.4 236.5 0.00 0.0170000 76.2
2021-09-15 07:25:00 64.6 53.5 47.3 64.6 64.6 3.7 5.8 3.8 244.6 237.8 0.00 0.0190000 76.1
2021-09-15 07:30:00 65.1 54.5 48.3 65.1 65.1 1.5 3.5 2.3 291.4 244.0 0.00 0.0210000 76.1
2021-09-15 07:35:00 65.5 53.8 48.4 65.5 65.5 3.7 4.9 2.7 224.5 241.8 0.00 0.0230000 76.0
2021-09-15 07:40:00 65.6 53.5 48.3 65.6 65.6 2.4 4.6 3.0 254.2 234.3 0.00 0.0250000 75.9
2021-09-15 07:45:00 65.7 53.3 48.2 65.7 65.7 3.5 4.6 2.9 267.0 238.5 0.00 0.0270000 75.9
2021-09-15 07:50:00 66.0 52.4 48.1 66.0 66.0 3.1 5.6 3.2 225.6 309.2 0.00 0.0290000 75.8
2021-09-15 07:55:00 66.8 52.2 48.7 66.8 66.8 1.7 6.2 3.7 4.2 298.7 0.00 0.0300000 75.8
2021-09-15 08:00:00 66.9 51.6 48.5 66.9 66.9 1.0 2.6 1.7 275.4 279.7 0.00 0.0330000 75.7
2021-09-15 08:05:00 67.2 53.3 49.6 67.2 67.2 0.0 1.2 0.3 195.6 48.2 0.00 0.0380000 75.7
2021-09-15 08:10:00 67.0 54.3 50.0 67.0 67.0 0.0 2.2 0.7 156.6 182.4 0.00 0.0510000 75.6
2021-09-15 08:15:00 67.4 51.6 49.0 67.4 67.4 1.0 1.3 0.1 53.3 76.4 0.00 0.1460000 75.6
2021-09-15 08:20:00 67.9 49.5 48.3 67.9 67.9 2.4 3.7 1.6 58.7 84.9 0.00 0.2300000 75.6
2021-09-15 08:25:00 68.3 50.6 49.3 68.3 68.3 1.2 3.1 1.3 77.0 63.8 0.00 0.2720000 75.5
2021-09-15 08:30:00 69.4 48.4 49.0 69.4 69.4 2.2 3.5 1.5 193.4 166.9 0.00 0.1270000 75.5
2021-09-15 08:35:00 69.3 50.4 50.1 69.3 69.3 1.3 2.2 0.9 214.5 215.2 0.00 0.0890000 75.5
2021-09-15 08:40:00 69.7 47.4 48.8 69.7 69.7 1.0 1.0 0.2 144.1 214.9 0.00 0.1010000 75.4
2021-09-15 08:45:00 70.2 45.1 47.9 70.2 70.2 3.7 4.0 2.0 193.7 240.7 0.00 0.1350000 75.4
2021-09-15 08:50:00 70.8 44.9 48.4 70.8 70.8 4.4 5.8 2.8 344.5 7.0 0.00 0.1170000 75.4
2021-09-15 08:55:00 71.2 43.2 47.7 71.2 71.2 4.4 8.5 4.7 41.8 0.9 0.00 0.2160000 75.4
2021-09-15 09:00:00 71.9 46.1 50.1 71.9 71.9 3.5 6.0 3.6 2.0 2.6 0.00 0.3980000 75.4
2021-09-15 09:05:00 72.4 44.2 49.3 72.4 72.4 3.0 6.2 3.9 307.5 22.1 0.00 0.4040000 75.4
2021-09-15 09:10:00 73.0 44.6 50.1 73.0 73.0 4.6 6.7 4.1 40.4 21.3 0.00 0.3060000 75.4
2021-09-15 09:15:00 72.7 45.8 50.7 72.7 72.7 4.2 6.5 4.1 39.5 37.0 0.00 0.4290000 75.4
2021-09-15 09:20:00 72.6 44.3 49.6 72.6 72.6 3.5 5.8 4.5 71.9 45.0 0.00 0.4330000 75.4
2021-09-15 09:25:00 72.5 45.0 49.9 72.5 72.5 4.0 7.1 4.4 76.7 57.9 0.00 0.4380000 75.5
2021-09-15 09:30:00 72.9 46.6 51.2 72.9 72.9 5.5 6.9 4.6 62.0 55.1 0.00 0.4460000 75.5
2021-09-15 09:35:00 73.3 43.3 49.6 73.3 73.3 5.3 6.2 4.5 79.3 48.4 0.00 0.4540000 75.6
2021-09-15 09:40:00 73.6 43.0 49.7 73.6 73.6 3.7 5.3 4.0 39.5 43.4 0.00 0.4680000 75.7
2021-09-15 09:45:00 74.2 42.0 49.6 74.2 74.2 5.1 6.0 3.9 28.4 49.7 0.00 0.4810000 75.8
2021-09-15 09:50:00 74.0 42.2 49.5 74.0 74.0 3.3 6.0 4.1 87.0 54.5 0.00 0.4930000 75.8
2021-09-15 09:55:00 74.3 43.1 50.4 74.3 74.3 2.8 6.0 3.8 27.2 41.5 0.00 0.5050000 76.0
2021-09-15 10:00:00 74.9 41.6 50.0 74.9 74.9 5.1 5.6 4.1 60.4 33.1 0.00 0.5190000 76.1
2021-09-15 10:05:00 75.3 40.8 49.9 75.3 75.3 4.6 6.0 4.5 52.3 25.3 0.00 0.5300000 76.2
2021-09-15 10:10:00 75.2 40.0 49.2 75.2 75.2 4.0 6.3 4.7 28.5 36.9 0.00 0.5430000 76.4
2021-09-15 10:15:00 76.4 37.2 48.3 76.4 76.4 3.5 5.8 3.3 340.5 12.2 0.00 0.5550000 76.6
2021-09-15 10:20:00 76.9 38.6 49.7 76.9 76.9 4.6 5.1 3.1 52.8 40.1 0.00 0.5700000 76.7
2021-09-15 10:25:00 77.2 37.0 48.9 77.2 77.2 1.3 5.8 3.1 31.8 68.4 0.00 0.5790000 76.9
2021-09-15 10:30:00 77.3 36.3 48.5 77.3 77.3 3.7 5.1 3.5 36.9 31.1 0.00 0.5910000 77.1
2021-09-15 10:35:00 77.6 38.6 50.4 77.6 77.6 4.2 5.1 3.1 62.0 43.7 0.00 0.6000000 77.3
2021-09-15 10:40:00 78.2 34.3 47.8 78.2 78.2 4.0 4.7 3.2 341.2 12.4 0.00 0.6130000 77.5
2021-09-15 10:45:00 79.0 33.4 47.8 79.0 79.0 1.3 6.7 3.2 257.7 351.9 0.00 0.6230000 77.7
2021-09-15 10:50:00 80.0 34.2 49.3 80.0 80.0 6.0 6.0 2.5 36.7 23.5 0.00 0.6350000 78.0
2021-09-15 10:55:00 79.8 31.1 46.6 79.8 79.8 2.8 6.2 3.3 275.5 297.1 0.00 0.6420000 78.2
2021-09-15 11:00:00 79.6 32.0 47.2 79.6 79.6 2.4 5.6 3.2 233.7 290.8 0.00 0.6520000 78.4
2021-09-15 11:05:00 79.1 32.2 46.9 79.1 79.1 0.8 6.0 2.6 199.7 231.7 0.00 0.6610000 78.6
2021-09-15 11:10:00 80.0 31.2 46.8 80.0 80.0 2.4 3.3 1.7 83.5 338.0 0.00 0.6720000 78.8
2021-09-15 11:15:00 79.5 31.7 46.8 79.5 79.5 3.0 3.1 2.3 235.8 224.7 0.00 0.6770000 79.1
2021-09-15 11:20:00 80.0 30.9 46.5 80.0 80.0 2.6 6.5 3.3 310.6 274.1 0.00 0.6860000 79.3
2021-09-15 11:25:00 80.1 31.0 46.7 80.1 80.1 2.8 6.2 3.2 323.7 260.5 0.00 0.6930000 79.6
2021-09-15 11:30:00 80.8 33.6 49.5 80.8 80.8 1.9 4.9 2.4 74.9 353.7 0.00 0.6990000 79.8
2021-09-15 11:35:00 81.8 29.7 47.0 81.8 81.8 1.0 4.9 1.8 260.7 300.4 0.00 0.7090000 80.1
2021-09-15 11:40:00 82.1 31.8 49.2 82.1 82.1 1.3 5.3 2.1 211.1 5.1 0.00 0.7130000 80.3
2021-09-15 11:45:00 81.3 29.9 46.8 81.3 81.3 3.5 5.5 3.0 228.4 239.1 0.00 0.7200000 80.6
2021-09-15 11:50:00 81.7 29.8 47.0 81.7 81.7 1.0 3.3 1.6 131.1 252.9 0.00 0.7260000 80.8
2021-09-15 11:55:00 82.0 29.8 47.4 82.0 82.0 1.9 2.6 1.7 218.3 213.1 0.00 0.7330000 81.1
2021-09-15 12:00:00 82.6 28.7 46.9 82.6 82.6 4.2 4.4 2.4 7.1 141.7 0.00 0.7360000 81.3
2021-09-15 12:05:00 82.1 28.7 46.4 82.1 82.1 3.0 4.6 3.2 2.4 31.7 0.00 0.7420000 81.6
2021-09-15 12:10:00 82.3 29.9 47.7 82.3 82.3 2.4 3.7 1.7 232.2 296.0 0.00 0.7470000 81.9
2021-09-15 12:15:00 83.6 29.7 48.7 83.6 83.6 2.8 2.8 1.7 319.4 309.7 0.00 0.7510000 82.1
2021-09-15 12:20:00 84.1 27.7 47.2 84.1 84.1 3.1 4.7 3.2 68.1 5.9 0.00 0.7530000 82.4
2021-09-15 12:25:00 83.8 30.3 49.4 83.8 83.8 0.8 3.5 2.0 53.7 90.0 0.00 0.7560000 82.7
2021-09-15 12:30:00 84.1 26.5 46.1 84.1 84.1 3.7 5.3 3.3 335.5 305.0 0.00 0.7590000 83.0
2021-09-15 12:35:00 83.6 27.2 46.3 83.6 83.6 2.4 4.0 2.3 182.6 222.5 0.00 0.7640000 83.2
2021-09-15 12:40:00 84.3 25.8 45.5 84.3 84.3 2.6 3.0 1.1 68.6 94.2 0.00 0.7690000 83.5
2021-09-15 12:45:00 84.3 26.2 45.9 84.3 84.3 1.7 4.4 2.7 69.6 46.0 0.00 0.7690000 83.8
2021-09-15 12:50:00 85.2 24.7 45.1 85.2 85.2 2.1 4.0 2.5 237.1 260.6 0.00 0.7710000 84.0
2021-09-15 12:55:00 84.8 24.7 44.8 84.8 84.8 4.6 4.9 2.9 239.7 231.7 0.00 0.7700000 84.3
2021-09-15 13:00:00 84.9 27.9 48.1 84.9 84.9 3.1 4.2 2.5 62.4 334.7 0.00 0.7690000 84.6
2021-09-15 13:05:00 86.1 28.3 49.5 86.1 86.1 1.9 4.4 2.5 319.2 81.3 0.00 0.7710000 84.8
2021-09-15 13:10:00 86.5 25.5 47.0 86.5 86.5 2.6 5.8 3.2 50.4 60.2 0.00 0.7680000 85.1
2021-09-15 13:15:00 85.7 24.8 45.7 85.7 85.7 2.4 5.1 2.8 339.6 12.3 0.00 0.7690000 85.4
2021-09-15 13:20:00 85.9 26.0 47.1 85.9 85.9 1.7 4.6 2.3 217.5 142.4 0.00 0.7740000 85.6
2021-09-15 13:25:00 86.0 24.5 45.6 86.0 86.0 3.0 3.8 3.1 236.6 203.5 0.00 0.7700000 85.9
2021-09-15 13:30:00 87.2 22.0 43.7 87.2 87.2 2.2 3.1 1.3 155.1 201.5 0.00 0.7650000 86.1
2021-09-15 13:35:00 87.7 21.6 43.7 87.7 87.7 2.8 4.0 2.3 130.9 107.6 0.00 0.7640000 86.4
2021-09-15 13:40:00 87.3 27.9 50.1 87.3 87.3 2.1 4.7 3.2 175.0 169.1 0.00 0.7600000 86.6
2021-09-15 13:45:00 88.2 22.6 45.3 88.2 88.2 0.8 3.3 2.0 144.2 169.8 0.00 0.7570000 86.9
2021-09-15 13:50:00 88.2 19.5 41.4 88.2 88.2 2.2 3.7 2.2 14.8 111.8 0.00 0.7580000 87.1
2021-09-15 13:55:00 88.1 19.3 41.1 88.1 88.1 2.4 3.5 2.3 169.4 51.7 0.00 0.7530000 87.4
2021-09-15 14:00:00 87.9 20.3 42.2 87.9 87.9 1.3 4.9 1.8 300.6 168.4 0.00 0.7440000 87.6
2021-09-15 14:05:00 89.2 21.6 44.9 89.2 89.2 2.1 4.2 1.7 166.6 192.0 0.00 0.7400000 87.8
2021-09-15 14:10:00 90.4 19.2 42.8 90.4 90.4 2.6 3.3 1.9 173.4 123.1 0.00 0.7370000 88.1
2021-09-15 14:15:00 89.5 18.7 41.4 89.5 89.5 4.0 5.1 3.0 45.7 58.8 0.00 0.7280000 88.3
2021-09-15 14:20:00 89.5 30.8 54.7 89.5 89.5 2.4 6.2 2.3 5.1 153.4 0.00 0.7220000 88.5
2021-09-15 14:25:00 89.8 17.5 39.9 89.8 89.8 3.1 4.4 2.7 30.5 63.1 0.00 0.7160000 88.8
2021-09-15 14:35:00 91.8 14.5 36.6 91.8 91.8 1.9 3.1 1.6 133.3 118.7 0.00 0.7090000 89.2
2021-09-15 14:40:00 90.3 16.4 38.7 90.3 90.3 1.7 3.8 2.5 39.3 69.6 0.00 0.7040000 89.4
2021-09-15 14:45:00 89.6 15.6 36.8 89.6 89.6 2.2 4.2 2.2 95.5 35.4 0.00 0.6910000 89.6
2021-09-15 14:50:00 90.1 17.1 39.5 90.1 90.1 1.2 3.1 2.1 223.5 43.8 0.00 0.6850000 89.8
2021-09-15 14:55:00 89.0 15.8 36.7 89.0 89.0 3.1 5.6 3.9 131.2 180.2 0.00 0.6790000 90.0
2021-09-15 15:00:00 89.9 15.1 36.2 89.9 89.9 3.7 4.0 2.4 172.4 144.3 0.00 0.6730000 90.1
2021-09-15 15:05:00 91.0 16.5 39.5 91.0 91.0 4.0 4.4 2.4 50.7 66.5 0.00 0.6650000 90.3
2021-09-15 15:10:00 90.3 16.8 39.4 90.3 90.3 2.8 4.2 2.3 52.4 63.5 0.00 0.6620000 90.5
2021-09-15 15:15:00 90.6 14.1 35.2 90.6 90.6 3.0 3.1 2.0 154.3 105.3 0.00 0.6400000 90.6
2021-09-15 15:20:00 89.9 16.4 38.3 89.9 89.9 2.1 4.9 3.1 199.1 166.6 0.00 0.6300000 90.8
2021-09-15 15:25:00 90.5 15.0 36.6 90.5 90.5 3.0 3.7 1.9 180.8 138.5 0.00 0.6230000 91.0
2021-09-15 15:30:00 90.2 14.9 36.2 90.2 90.2 2.1 4.6 2.1 191.9 183.8 0.00 0.6090000 91.1
2021-09-15 15:35:00 90.6 16.4 38.9 90.6 90.6 2.8 3.0 1.5 179.2 246.7 0.00 0.2680000 91.2
2021-09-15 15:40:00 90.2 14.3 35.2 90.2 90.2 4.7 6.5 3.4 247.1 218.8 0.00 0.0470000 91.3
2021-09-15 15:45:00 89.4 15.7 36.8 89.4 89.4 2.8 8.7 4.9 244.8 243.2 0.00 0.3350000 91.5
2021-09-15 15:50:00 90.1 13.7 34.0 90.1 90.1 1.3 3.3 2.2 279.1 341.7 0.00 0.5640000 91.6
2021-09-15 15:55:00 91.2 15.1 37.4 91.2 91.2 2.4 3.3 1.7 48.2 8.5 0.00 0.5510000 91.7
2021-09-15 16:00:00 90.9 14.4 35.9 90.9 90.9 1.5 3.1 2.5 7.5 45.3 0.00 0.5400000 91.8
2021-09-15 16:05:00 91.7 13.5 34.8 91.7 91.7 1.3 2.4 1.2 59.5 90.3 0.00 0.5280000 91.9
2021-09-15 16:10:00 91.4 14.6 36.6 91.4 91.4 1.9 3.5 2.4 201.9 74.4 0.00 0.5160000 92.1
2021-09-15 16:15:00 91.0 14.4 35.9 91.0 91.0 3.0 3.3 2.6 163.5 186.0 0.00 0.5040000 92.2
2021-09-15 16:20:00 90.2 15.1 36.4 90.2 90.2 2.1 4.2 2.7 156.8 199.4 0.00 0.4890000 92.2
2021-09-15 16:25:00 90.2 13.1 33.0 90.2 90.2 1.9 4.0 2.2 94.8 175.2 0.00 0.4760000 92.4
2021-09-15 16:30:00 90.5 14.0 34.8 90.5 90.5 4.0 5.3 3.1 37.2 8.3 0.00 0.4630000 92.4
2021-09-15 16:35:00 91.2 15.6 38.0 91.2 91.2 2.4 4.4 2.5 39.0 47.2 0.00 0.4500000 92.5
2021-09-15 16:40:00 92.1 13.9 35.8 92.1 92.1 3.5 3.7 2.0 26.1 76.8 0.00 0.4350000 92.6
2021-09-15 16:45:00 93.0 13.9 36.6 93.0 93.0 2.2 3.0 1.6 130.6 87.3 0.00 0.4190000 92.6
2021-09-15 16:50:00 91.5 14.7 36.9 91.5 91.5 4.2 4.4 2.4 91.2 168.2 0.00 0.4030000 92.7
2021-09-15 16:55:00 91.8 15.5 38.4 91.8 91.8 1.0 2.8 1.7 70.4 123.9 0.00 0.3900000 92.7
2021-09-15 17:00:00 92.6 15.5 39.0 92.6 92.6 1.0 3.0 1.7 337.7 129.9 0.00 0.3730000 92.7
2021-09-15 17:05:00 92.6 12.6 33.7 92.6 92.6 3.0 3.0 1.4 153.9 126.2 0.00 0.0650000 92.7
2021-09-15 17:10:00 91.0 13.2 33.7 91.0 91.0 1.9 3.7 2.2 152.7 134.4 0.00 0.0390000 92.8
2021-09-15 17:15:00 90.7 12.8 32.8 90.7 90.7 2.2 3.0 1.6 160.1 136.5 0.00 0.0370000 92.7
2021-09-15 17:20:00 89.6 15.7 37.0 89.6 89.6 0.0 2.2 1.4 279.9 137.7 0.00 0.0380000 92.7
2021-09-15 17:25:00 89.3 15.9 37.0 89.3 89.3 1.5 2.1 1.3 52.8 99.8 0.00 0.0360000 92.7
2021-09-15 17:30:00 89.4 15.4 36.3 89.4 89.4 0.8 2.6 1.0 52.8 75.6 0.00 0.0350000 92.6
2021-09-15 17:35:00 89.3 15.0 35.7 89.3 89.3 1.0 3.0 1.0 12.7 70.1 0.00 0.0340000 92.6
2021-09-15 17:40:00 89.1 16.8 38.3 89.1 89.1 0.0 2.1 0.9 92.5 103.2 0.00 0.0340000 92.5
2021-09-15 17:45:00 88.8 16.5 37.6 88.8 88.8 0.0 2.6 0.5 188.3 83.9 0.00 0.0330000 92.4
2021-09-15 17:50:00 88.4 17.1 38.1 88.4 88.4 1.5 2.8 0.7 110.0 10.1 0.00 0.0320000 92.3
2021-09-15 17:55:00 87.9 17.2 37.9 87.9 87.9 0.0 2.1 0.6 103.0 132.0 0.00 0.0300000 92.1
2021-09-15 18:00:00 87.4 16.6 36.6 87.4 87.4 0.0 0.8 0.0 257.8 296.0 0.00 0.0300000 92.0
2021-09-15 18:05:00 87.2 18.3 38.9 87.2 87.2 0.0 0.0 0.0 336.5 0.0 0.00 0.0290000 91.8
2021-09-15 18:10:00 86.4 19.1 39.4 86.4 86.4 0.0 0.0 0.0 217.8 0.0 0.00 0.0280000 91.7
2021-09-15 18:15:00 85.8 19.3 39.1 85.8 85.8 0.0 0.0 0.0 100.4 0.0 0.00 0.0260000 91.6
2021-09-15 18:20:00 85.7 21.0 41.2 85.7 85.7 0.0 1.5 0.4 64.3 105.4 0.00 0.0240000 91.5
2021-09-15 18:25:00 85.5 21.0 41.2 85.5 85.5 0.0 1.7 0.5 163.5 91.4 0.00 0.0200000 91.3
2021-09-15 18:30:00 84.0 22.2 41.4 84.0 84.0 0.0 0.0 0.0 236.8 0.0 0.00 0.0230000 91.2
2021-09-15 18:35:00 82.9 23.3 41.6 82.9 82.9 0.0 0.0 0.0 213.4 0.0 0.00 0.0210000 91.0
2021-09-15 18:40:00 82.1 25.1 43.0 82.1 82.1 0.0 0.0 0.0 221.2 0.0 0.00 0.0170000 90.9
2021-09-15 18:45:00 81.7 24.9 42.3 81.7 81.7 0.0 0.0 0.0 214.0 0.0 0.00 0.0140000 90.8
2021-09-15 18:50:00 80.7 26.3 42.9 80.7 80.7 0.0 0.0 0.0 210.1 0.0 0.00 0.0110000 90.6
2021-09-15 18:55:00 80.0 26.5 42.6 80.0 80.0 0.0 0.0 0.0 210.1 0.0 0.00 0.0080000 90.4
2021-09-15 19:00:00 79.3 28.7 44.0 79.3 79.3 0.0 0.0 0.0 193.5 0.0 0.00 0.0070000 90.3
2021-09-15 19:05:00 78.4 30.0 44.3 78.4 78.4 0.0 0.0 0.0 225.5 0.0 0.00 0.0050000 90.1
2021-09-15 19:10:00 77.9 30.6 44.5 77.9 77.9 0.0 0.0 0.0 233.3 0.0 0.00 0.0040000 90.0
2021-09-15 19:15:00 77.3 30.0 43.4 77.3 77.3 0.0 0.0 0.0 239.6 0.0 0.00 0.0030000 89.8
2021-09-15 19:20:00 76.9 31.2 44.1 76.9 76.9 2.1 2.1 0.5 237.5 235.3 0.00 0.0020000 89.7
2021-09-15 19:25:00 76.2 32.7 44.8 76.2 76.2 1.3 3.0 1.9 234.6 234.3 0.00 0.0010000 89.5
2021-09-15 19:30:00 75.6 33.3 44.7 75.6 75.6 0.0 1.2 0.2 56.2 231.3 0.00 0.0000000 89.4
2021-09-15 19:35:00 75.0 33.4 44.3 75.0 75.0 0.0 0.0 0.0 44.7 0.0 0.00 0.0000000 89.2
2021-09-15 19:40:00 74.1 34.9 44.6 74.1 74.1 0.0 0.0 0.0 342.9 0.0 0.00 0.0000000 89.0
2021-09-15 19:45:00 73.4 35.0 44.1 73.4 73.4 0.0 0.0 0.0 342.9 0.0 0.00 0.0000000 88.9
2021-09-15 19:50:00 73.0 35.1 43.8 73.0 73.0 0.0 0.0 0.0 92.7 0.0 0.00 0.0000000 88.8
2021-09-15 19:55:00 72.6 36.1 44.2 72.6 72.6 0.0 0.0 0.0 71.6 0.0 0.00 0.0000000 88.6
2021-09-15 20:00:00 71.9 36.9 44.1 71.9 71.9 0.0 0.0 0.0 71.6 0.0 0.00 0.0000000 88.4
2021-09-15 20:05:00 71.4 38.0 44.5 71.4 71.4 0.0 0.0 0.0 71.6 0.0 0.00 0.0000000 88.3
2021-09-15 20:10:00 70.8 39.1 44.7 70.8 70.8 0.0 0.0 0.0 71.7 0.0 0.00 0.0000000 88.2
2021-09-15 20:15:00 70.4 36.7 42.7 70.4 70.4 0.0 0.0 0.0 178.0 0.0 0.00 0.0000000 88.0
2021-09-15 20:20:00 70.5 37.7 43.5 70.5 70.5 0.0 0.0 0.0 162.4 0.0 0.00 0.0000000 87.9
2021-09-15 20:25:00 70.5 38.5 44.0 70.5 70.5 0.8 1.9 0.2 195.8 188.1 0.00 0.0000000 87.7
2021-09-15 20:30:00 70.2 38.0 43.4 70.2 70.2 0.0 1.9 1.0 260.2 268.3 0.00 0.0000000 87.5
2021-09-15 20:35:00 70.1 37.4 42.9 70.1 70.1 0.0 1.2 0.2 257.6 258.7 0.00 0.0000000 87.4
2021-09-15 20:40:00 69.9 38.9 43.7 69.9 69.9 0.0 0.0 0.0 256.6 0.0 0.00 0.0000000 87.2
2021-09-15 20:45:00 69.6 38.2 43.0 69.6 69.6 0.0 0.0 0.0 259.2 0.0 0.00 0.0000000 87.1
2021-09-15 20:50:00 69.3 39.0 43.3 69.3 69.3 0.0 1.9 0.7 287.1 272.7 0.00 0.0000000 87.0
2021-09-15 20:55:00 68.7 35.4 40.2 68.7 68.7 0.0 0.8 0.0 312.8 272.3 0.00 0.0000000 86.8
2021-09-15 21:00:00 68.3 36.4 40.6 68.3 68.3 0.0 0.0 0.0 312.8 0.0 0.00 0.0000000 86.7
2021-09-15 21:05:00 68.2 37.1 40.9 68.2 68.2 0.0 0.0 0.0 228.3 0.0 0.00 0.0000000 86.5
2021-09-15 21:10:00 68.0 37.2 40.9 68.0 68.0 0.0 0.0 0.0 228.4 0.0 0.00 0.0000000 86.4
2021-09-15 21:15:00 67.7 41.6 43.5 67.7 67.7 0.0 0.0 0.0 79.3 0.0 0.00 0.0000000 86.2
2021-09-15 21:20:00 67.3 40.9 42.7 67.3 67.3 0.0 0.0 0.0 112.0 0.0 0.00 0.0000000 86.1
2021-09-15 21:25:00 67.0 42.0 43.1 67.0 67.0 0.0 0.0 0.0 66.4 0.0 0.00 0.0000000 85.9
2021-09-15 21:30:00 66.8 42.8 43.4 66.8 66.8 0.0 0.0 0.0 335.7 0.0 0.00 0.0000000 85.8
2021-09-15 21:35:00 66.3 43.8 43.6 66.3 66.3 0.0 0.0 0.0 276.9 0.0 0.00 0.0000000 85.7
2021-09-15 21:40:00 66.5 42.2 42.9 66.5 66.5 0.0 0.0 0.0 272.6 0.0 0.00 0.0000000 85.6
2021-09-15 21:45:00 66.7 40.9 42.2 66.7 66.7 1.2 1.3 0.4 265.9 258.0 0.00 0.0000000 85.4
2021-09-15 21:50:00 66.4 41.4 42.2 66.4 66.4 0.0 1.2 0.3 264.2 250.2 0.00 0.0000000 85.3
2021-09-15 21:55:00 66.4 40.2 41.5 66.4 66.4 0.0 1.2 0.3 234.8 267.3 0.00 0.0000000 85.2
2021-09-15 22:00:00 65.9 41.2 41.7 65.9 65.9 0.0 0.0 0.0 271.2 0.0 0.00 0.0000000 85.0
2021-09-15 22:05:00 66.0 41.2 41.8 66.0 66.0 0.0 0.0 0.0 256.4 0.0 0.00 0.0000000 84.9
2021-09-15 22:10:00 65.7 40.8 41.2 65.7 65.7 0.0 0.0 0.0 273.8 0.0 0.00 0.0000000 84.8
2021-09-15 22:15:00 65.6 41.6 41.7 65.6 65.6 0.0 0.0 0.0 262.6 0.0 0.00 0.0000000 84.7
2021-09-15 22:20:00 65.6 40.6 41.0 65.6 65.6 0.0 0.0 0.0 240.7 0.0 0.00 0.0000000 84.5
2021-09-15 22:25:00 65.7 41.6 41.8 65.7 65.7 0.0 1.3 0.4 281.0 252.9 0.00 0.0000000 84.4
2021-09-15 22:30:00 65.4 40.9 41.1 65.4 65.4 2.2 2.2 0.5 273.6 274.8 0.00 0.0000000 84.3
2021-09-15 22:35:00 65.9 41.5 41.8 65.9 65.9 0.0 2.8 0.9 253.6 276.5 0.00 0.0000000 84.2
2021-09-15 22:40:00 65.9 39.9 40.9 65.9 65.9 1.3 2.1 1.2 267.7 268.8 0.00 0.0000000 84.1
2021-09-15 22:45:00 66.8 37.2 39.8 66.8 66.8 2.2 3.5 2.1 247.6 252.3 0.00 0.0000000 83.9
2021-09-15 22:50:00 66.8 37.6 40.1 66.8 66.8 2.4 2.6 2.1 234.5 245.4 0.00 0.0000000 83.8
2021-09-15 22:55:00 66.8 41.2 42.5 66.8 66.8 1.3 2.8 2.0 228.8 238.3 0.00 0.0000000 83.7
2021-09-15 23:00:00 66.4 39.6 41.0 66.4 66.4 0.0 2.6 1.4 232.5 257.1 0.00 0.0000000 83.6
2021-09-15 23:05:00 65.8 38.5 39.8 65.8 65.8 1.7 1.7 0.8 239.3 265.6 0.00 0.0000000 83.5
2021-09-15 23:10:00 65.5 39.9 40.5 65.5 65.5 0.0 2.1 1.3 259.1 257.7 0.00 0.0000000 83.3
2021-09-15 23:15:00 65.1 40.7 40.7 65.1 65.1 0.0 2.6 0.8 248.1 253.9 0.00 0.0000000 83.2
2021-09-15 23:20:00 65.4 39.1 39.9 65.4 65.4 1.7 2.8 2.1 262.1 256.4 0.00 0.0000000 83.1
2021-09-15 23:25:00 65.4 40.8 40.9 65.4 65.4 0.0 2.2 1.0 138.4 221.5 0.00 0.0000000 83.0
2021-09-15 23:30:00 66.0 37.7 39.5 66.0 66.0 2.1 2.2 1.4 256.6 279.2 0.00 0.0000000 82.9
2021-09-15 23:35:00 67.1 37.4 40.3 67.1 67.1 0.0 3.1 1.7 240.5 251.8 0.00 0.0000000 82.8
2021-09-15 23:40:00 66.6 38.4 40.5 66.6 66.6 1.2 3.1 1.5 102.4 185.8 0.00 0.0000000 82.7
2021-09-15 23:45:00 67.7 35.8 39.6 67.7 67.7 1.3 3.8 2.3 196.5 247.9 0.00 0.0000000 82.5
2021-09-15 23:50:00 67.8 35.0 39.2 67.8 67.8 3.1 3.7 1.8 288.8 241.3 0.00 0.0000000 82.4
2021-09-15 23:55:00 68.1 36.3 40.3 68.1 68.1 1.5 3.3 1.8 253.9 259.4 0.00 0.0000000 82.3
2021-09-16 00:00:00 67.0 36.2 39.3 67.0 67.0 2.6 2.6 1.2 299.4 306.9 0.00 0.0000000 82.2

Data is courtesy of the NM Climate Center. DO NOT USE IN LEGAL PROCEEDINGS.